Time;durP1;ratioP1;P1;durP2;ratioP2;P2;SDS_P1;SDS_P2;PMS_P1;PMS_P2;Temp;Humidity;BMP_temperature;BMP_pressure;BME280_temperature;BME280_humidity;BME280_pressure;Samples;Min_cycle;Max_cycle;Signal;HPM_P1;HPM_P2
2022/07/25 00:00:41;;;;;;;7.18;6.47;;;20.60;98.00;;;;;;4209548;28;20133;-65
2022/07/25 00:02:42;;;;;;;8.23;5.97;;;20.50;98.10;;;;;;4209773;28;20052;-67
2022/07/25 00:04:43;;;;;;;7.35;6.00;;;20.40;98.30;;;;;;4210116;28;20884;-67
2022/07/25 00:06:44;;;;;;;6.65;5.60;;;20.40;98.50;;;;;;4209580;28;20032;-66
2022/07/25 00:08:45;;;;;;;6.22;5.63;;;20.30;98.60;;;;;;4213135;28;20115;-67
2022/07/25 00:10:46;;;;;;;6.30;5.60;;;20.40;98.70;;;;;;4212446;28;20024;-66
2022/07/25 00:12:47;;;;;;;7.53;6.22;;;20.40;98.80;;;;;;4213729;28;20036;-66
2022/07/25 00:14:49;;;;;;;9.35;5.57;;;20.50;98.80;;;;;;4229192;28;20043;-66
2022/07/25 00:16:50;;;;;;;6.38;5.57;;;20.70;98.80;;;;;;4230505;28;20035;-65
2022/07/25 00:18:51;;;;;;;7.00;5.80;;;20.70;98.70;;;;;;4229159;28;20085;-65
2022/07/25 00:20:52;;;;;;;7.13;5.90;;;20.70;98.70;;;;;;4213577;28;20028;-66
2022/07/25 00:22:53;;;;;;;6.50;5.80;;;20.80;98.70;;;;;;4211167;28;20047;-65
2022/07/25 00:24:56;;;;;;;8.43;6.30;;;20.80;98.70;;;;;;4214154;28;20044;-65
2022/07/25 00:26:58;;;;;;;6.28;5.32;;;20.70;98.70;;;;;;4212371;28;20032;-65
2022/07/25 00:28:59;;;;;;;6.68;6.03;;;20.80;98.90;;;;;;4213880;28;20044;-68
2022/07/25 00:31:00;;;;;;;8.25;6.13;;;20.70;98.90;;;;;;4217876;28;20053;-65
2022/07/25 00:33:01;;;;;;;7.40;6.65;;;20.70;98.90;;;;;;4229948;28;20043;-67
2022/07/25 00:35:03;;;;;;;7.07;5.97;;;20.60;99.10;;;;;;4229634;28;20031;-66
2022/07/25 00:37:04;;;;;;;7.32;5.88;;;20.70;99.20;;;;;;4228867;28;20377;-69
2022/07/25 00:39:05;;;;;;;8.23;6.03;;;20.60;99.20;;;;;;4230486;28;20089;-66
2022/07/25 00:41:06;;;;;;;9.07;5.68;;;20.50;99.40;;;;;;4228974;28;20027;-67
2022/07/25 00:43:07;;;;;;;8.48;6.13;;;20.30;99.70;;;;;;4230311;28;20553;-64
2022/07/25 00:45:09;;;;;;;9.48;5.97;;;20.30;99.90;;;;;;4228413;28;20032;-65
2022/07/25 00:47:10;;;;;;;6.05;5.25;;;20.10;99.90;;;;;;4230374;28;20092;-64
2022/07/25 00:49:11;;;;;;;8.00;5.72;;;20.00;99.90;;;;;;4228647;28;20035;-65
2022/07/25 00:51:14;;;;;;;7.70;5.55;;;20.00;99.90;;;;;;4217411;28;20060;-67
2022/07/25 00:53:16;;;;;;;7.40;6.07;;;20.00;99.90;;;;;;4212148;28;20061;-67
2022/07/25 00:55:17;;;;;;;8.40;6.18;;;20.00;99.90;;;;;;4213416;28;20078;-65
2022/07/25 00:57:18;;;;;;;6.65;5.80;;;20.00;99.90;;;;;;4212032;28;20430;-66
2022/07/25 00:59:19;;;;;;;7.03;6.18;;;20.00;99.90;;;;;;4213089;28;20024;-66
2022/07/25 01:01:21;;;;;;;7.60;6.03;;;20.00;99.90;;;;;;4212990;28;20095;-66
2022/07/25 01:03:22;;;;;;;6.60;5.55;;;20.10;99.90;;;;;;4212635;28;20047;-66
2022/07/25 01:05:23;;;;;;;7.30;6.20;;;20.00;99.90;;;;;;4212006;28;20024;-64
2022/07/25 01:07:25;;;;;;;8.77;5.75;;;20.00;99.90;;;;;;4228923;28;20036;-66
2022/07/25 01:09:26;;;;;;;6.65;5.95;;;20.00;99.90;;;;;;4229269;28;20394;-66
2022/07/25 01:11:28;;;;;;;8.38;5.85;;;20.10;99.90;;;;;;4228506;28;20085;-64
2022/07/25 01:13:33;;;;;;;6.30;5.20;;;20.20;99.90;;;;;;4229801;27;20039;-64
2022/07/25 01:15:34;;;;;;;6.82;6.00;;;20.20;99.90;;;;;;4228148;28;20089;-65
2022/07/25 01:17:35;;;;;;;6.32;5.72;;;20.30;99.90;;;;;;4230013;28;20019;-65
2022/07/25 01:19:36;;;;;;;6.63;5.93;;;20.30;99.90;;;;;;4228002;28;20039;-63
2022/07/25 01:21:39;;;;;;;7.82;6.03;;;20.20;99.90;;;;;;4229551;28;20039;-64
2022/07/25 01:23:42;;;;;;;6.68;6.07;;;20.10;99.90;;;;;;4227695;28;20484;-65
2022/07/25 01:25:43;;;;;;;7.30;6.15;;;20.10;99.90;;;;;;4202725;28;20055;-64
2022/07/25 01:27:45;;;;;;;6.68;6.00;;;20.10;99.90;;;;;;4211086;28;20112;-64
2022/07/25 01:29:46;;;;;;;6.57;5.85;;;20.10;99.90;;;;;;4212956;28;20024;-66
2022/07/25 01:31:48;;;;;;;9.18;6.10;;;20.10;99.90;;;;;;4225249;28;20092;-65
2022/07/25 01:33:49;;;;;;;6.75;6.05;;;20.20;99.90;;;;;;4228291;28;20023;-67
2022/07/25 01:35:50;;;;;;;6.85;6.10;;;20.20;99.90;;;;;;4211647;28;20044;-65
2022/07/25 01:37:51;;;;;;;9.20;5.93;;;20.20;99.90;;;;;;4212291;28;20036;-65
2022/07/25 01:39:53;;;;;;;7.78;6.03;;;20.20;99.90;;;;;;4212218;28;20434;-67
2022/07/25 01:41:54;;;;;;;9.52;6.40;;;20.20;99.90;;;;;;4211389;28;20020;-66
2022/07/25 01:43:55;;;;;;;8.32;6.20;;;20.10;99.90;;;;;;4212384;28;20028;-65
2022/07/25 01:45:56;;;;;;;8.93;6.20;;;20.00;99.90;;;;;;4211261;28;20488;-64
2022/07/25 01:47:57;;;;;;;8.50;6.75;;;20.00;99.90;;;;;;4212568;28;20438;-67
2022/07/25 01:49:59;;;;;;;7.75;6.55;;;19.90;99.90;;;;;;4223057;28;20082;-65
2022/07/25 01:52:00;;;;;;;8.60;6.50;;;19.80;99.90;;;;;;4229199;28;20036;-65
2022/07/25 01:54:01;;;;;;;8.73;6.18;;;19.80;99.90;;;;;;4227422;28;20085;-64
2022/07/25 01:56:07;;;;;;;7.35;6.32;;;19.70;99.90;;;;;;4229393;28;20085;-64
2022/07/25 01:58:08;;;;;;;10.95;6.13;;;19.60;99.90;;;;;;4227440;28;20085;-65
2022/07/25 02:00:12;;;;;;;6.85;6.10;;;19.50;99.90;;;;;;4229113;28;20521;-64
2022/07/25 02:02:13;;;;;;;10.40;5.70;;;19.50;99.90;;;;;;4227493;27;20044;-65
2022/07/25 02:04:14;;;;;;;8.68;6.53;;;19.40;99.90;;;;;;4228871;28;20104;-66
2022/07/25 02:06:17;;;;;;;8.18;6.30;;;19.30;99.90;;;;;;4227561;28;20381;-64
2022/07/25 02:08:19;;;;;;;7.53;6.72;;;19.30;99.90;;;;;;4214436;28;20188;-65
2022/07/25 02:10:20;;;;;;;8.88;6.25;;;19.30;99.90;;;;;;4211621;28;20028;-63
2022/07/25 02:12:21;;;;;;;8.30;6.88;;;19.30;99.90;;;;;;4211266;28;20032;-67
2022/07/25 02:14:22;;;;;;;8.35;6.38;;;19.20;99.90;;;;;;4211624;28;20036;-67
2022/07/25 02:16:24;;;;;;;7.95;6.70;;;19.20;99.90;;;;;;4210814;28;20541;-66
2022/07/25 02:18:25;;;;;;;7.70;5.88;;;19.20;99.90;;;;;;4211810;28;20461;-64
2022/07/25 02:20:26;;;;;;;7.00;6.28;;;19.20;99.90;;;;;;4210431;28;20024;-63
2022/07/25 02:22:27;;;;;;;7.88;6.20;;;19.20;99.90;;;;;;4220484;28;20051;-66
2022/07/25 02:24:29;;;;;;;7.93;6.18;;;19.20;99.90;;;;;;4227169;27;20039;-65
2022/07/25 02:26:30;;;;;;;7.72;6.57;;;19.30;99.90;;;;;;4228702;28;20525;-65
2022/07/25 02:28:31;;;;;;;7.25;6.32;;;19.40;99.90;;;;;;4227069;28;20089;-64
2022/07/25 02:30:32;;;;;;;6.80;6.00;;;19.40;99.90;;;;;;4217590;28;20052;-65
2022/07/25 02:32:33;;;;;;;7.60;6.25;;;19.30;99.90;;;;;;4210277;28;20085;-65
2022/07/25 02:34:34;;;;;;;8.43;6.60;;;19.30;99.90;;;;;;4211710;28;20024;-65
2022/07/25 02:36:36;;;;;;;10.23;6.25;;;19.20;99.90;;;;;;4210528;28;20031;-66
2022/07/25 02:38:37;;;;;;;8.60;6.40;;;19.00;99.90;;;;;;4211744;28;20468;-66
2022/07/25 02:40:38;;;;;;;7.38;6.07;;;18.90;99.90;;;;;;4210923;28;20414;-65
2022/07/25 02:42:39;;;;;;;7.88;6.20;;;18.80;99.90;;;;;;4211340;28;20094;-65
2022/07/25 02:44:41;;;;;;;7.15;6.45;;;18.70;99.90;;;;;;4227875;28;20084;-67
2022/07/25 02:46:42;;;;;;;8.38;6.30;;;18.80;99.90;;;;;;4227313;28;20085;-67
2022/07/25 02:48:43;;;;;;;6.90;6.15;;;18.80;99.90;;;;;;4227150;28;20036;-67
2022/07/25 02:50:44;;;;;;;11.77;6.13;;;18.90;99.90;;;;;;4225759;28;20035;-67
2022/07/25 02:52:45;;;;;;;7.20;5.78;;;18.90;99.90;;;;;;4228310;27;20040;-66
2022/07/25 02:54:46;;;;;;;10.52;6.55;;;18.80;99.90;;;;;;4226755;28;20093;-68
2022/07/25 02:56:48;;;;;;;7.97;6.22;;;18.80;99.90;;;;;;4228337;28;20084;-67
2022/07/25 02:58:49;;;;;;;8.45;6.30;;;18.90;99.90;;;;;;4226582;28;20043;-67
2022/07/25 03:00:50;;;;;;;11.63;6.70;;;18.80;99.90;;;;;;4227818;28;20039;-66
2022/07/25 03:02:51;;;;;;;11.23;6.50;;;18.70;99.90;;;;;;4226677;28;20093;-65
2022/07/25 03:04:52;;;;;;;7.97;6.30;;;18.70;99.90;;;;;;4228195;28;20500;-66
2022/07/25 03:06:54;;;;;;;6.82;6.00;;;18.60;99.90;;;;;;4216211;28;20040;-67
2022/07/25 03:08:55;;;;;;;10.20;6.55;;;18.70;99.90;;;;;;4210858;28;20048;-65
2022/07/25 03:10:56;;;;;;;11.18;7.05;;;18.60;99.90;;;;;;4210600;28;20028;-65
2022/07/25 03:12:57;;;;;;;12.70;6.22;;;18.60;99.90;;;;;;4210312;28;20085;-67
2022/07/25 03:14:59;;;;;;;9.63;7.55;;;18.60;99.90;;;;;;4210531;28;20048;-65
2022/07/25 03:17:00;;;;;;;10.00;6.57;;;18.60;99.90;;;;;;4210089;28;20057;-66
2022/07/25 03:19:01;;;;;;;8.23;6.35;;;18.50;99.90;;;;;;4210721;28;20032;-66
2022/07/25 03:21:03;;;;;;;6.75;6.00;;;18.50;99.90;;;;;;4209433;28;20044;-66
2022/07/25 03:23:04;;;;;;;8.35;6.63;;;18.50;99.90;;;;;;4222833;28;20081;-65
2022/07/25 03:25:06;;;;;;;8.38;6.18;;;18.70;99.90;;;;;;4226228;28;20085;-65
2022/07/25 03:27:07;;;;;;;7.15;5.88;;;18.90;99.90;;;;;;4227966;28;20016;-65
2022/07/25 03:29:08;;;;;;;6.47;5.60;;;19.10;99.90;;;;;;4226282;28;20039;-65
2022/07/25 03:31:09;;;;;;;6.70;6.07;;;19.20;99.90;;;;;;4216934;28;20823;-64
2022/07/25 03:33:10;;;;;;;8.25;6.25;;;19.40;99.90;;;;;;4214957;28;20495;-66
2022/07/25 03:35:12;;;;;;;7.15;6.45;;;19.50;99.90;;;;;;4227472;28;20089;-64
2022/07/25 03:37:13;;;;;;;8.13;5.55;;;19.70;99.90;;;;;;4223711;28;20032;-65
2022/07/25 03:39:14;;;;;;;6.57;5.68;;;20.00;99.90;;;;;;4212442;28;20467;-63
2022/07/25 03:41:15;;;;;;;6.85;5.55;;;20.30;99.90;;;;;;4215329;28;20089;-63
2022/07/25 03:43:16;;;;;;;6.18;5.57;;;20.60;99.90;;;;;;4209249;28;20101;-66
2022/07/25 03:45:17;;;;;;;10.45;6.28;;;20.90;99.90;;;;;;4209859;28;20020;-64
2022/07/25 03:47:18;;;;;;;9.57;5.78;;;21.00;99.90;;;;;;4209589;28;20032;-65
2022/07/25 03:49:20;;;;;;;7.28;6.05;;;21.10;99.90;;;;;;4210155;28;20081;-64
2022/07/25 03:51:21;;;;;;;8.43;6.00;;;21.40;99.90;;;;;;4209093;28;20036;-64
2022/07/25 03:53:22;;;;;;;8.80;5.53;;;21.70;99.90;;;;;;4210519;28;20032;-65
2022/07/25 03:55:23;;;;;;;8.13;5.45;;;21.90;99.90;;;;;;4208566;28;20016;-67
2022/07/25 03:57:24;;;;;;;8.52;6.20;;;22.10;99.90;;;;;;4210351;28;20036;-66
2022/07/25 03:59:25;;;;;;;6.18;5.53;;;22.20;99.90;;;;;;4208985;28;20028;-65
2022/07/25 04:01:27;;;;;;;7.30;5.97;;;22.40;99.90;;;;;;4210426;28;20085;-66
2022/07/25 04:03:28;;;;;;;8.35;5.57;;;22.60;99.80;;;;;;4208779;28;20044;-65
2022/07/25 04:05:29;;;;;;;8.55;6.43;;;22.80;99.20;;;;;;4210419;28;20039;-63
2022/07/25 04:07:30;;;;;;;8.13;5.50;;;23.00;98.70;;;;;;4209322;28;20040;-65
2022/07/25 04:09:32;;;;;;;6.30;5.70;;;23.00;98.40;;;;;;4210812;28;20052;-67
2022/07/25 04:11:34;;;;;;;6.75;5.88;;;23.20;97.90;;;;;;4209724;28;20078;-65
2022/07/25 04:13:36;;;;;;;9.18;6.13;;;23.50;97.40;;;;;;4225646;28;20044;-67
2022/07/25 04:15:37;;;;;;;7.30;5.63;;;23.80;96.90;;;;;;4225875;28;20039;-64
2022/07/25 04:17:38;;;;;;;7.22;5.93;;;23.80;96.40;;;;;;4226069;28;20112;-63
2022/07/25 04:19:39;;;;;;;7.75;6.18;;;24.10;96.00;;;;;;4226518;28;20713;-64
2022/07/25 04:21:40;;;;;;;8.90;6.00;;;24.70;95.30;;;;;;4225728;28;20036;-64
2022/07/25 04:23:42;;;;;;;8.75;5.55;;;25.20;94.20;;;;;;4215758;28;20094;-65
2022/07/25 04:25:43;;;;;;;6.55;5.68;;;25.50;93.60;;;;;;4208858;28;20805;-65
2022/07/25 04:27:44;;;;;;;6.80;5.50;;;25.90;93.10;;;;;;4215110;28;20446;-64
2022/07/25 04:29:45;;;;;;;9.27;5.78;;;26.20;92.30;;;;;;4225556;28;20438;-65
2022/07/25 04:31:46;;;;;;;8.90;5.45;;;26.90;91.60;;;;;;4204911;28;20087;-65
2022/07/25 04:33:48;;;;;;;7.38;4.97;;;27.40;90.60;;;;;;4192506;28;20028;-64
2022/07/25 04:35:49;;;;;;;7.10;5.18;;;28.00;89.70;;;;;;4200486;28;20093;-63
2022/07/25 04:37:50;;;;;;;6.90;6.07;;;28.40;87.40;;;;;;4208612;28;20053;-66
2022/07/25 04:39:51;;;;;;;5.82;4.93;;;28.60;86.40;;;;;;4221296;28;20112;-65
2022/07/25 04:41:53;;;;;;;6.72;4.43;;;28.80;85.50;;;;;;4226183;28;20088;-64
2022/07/25 04:43:54;;;;;;;6.07;5.00;;;29.30;84.30;;;;;;4226600;28;20044;-64
2022/07/25 04:45:55;;;;;;;7.03;4.47;;;29.40;83.00;;;;;;4226120;28;20016;-65
2022/07/25 04:47:56;;;;;;;8.43;4.80;;;29.80;82.10;;;;;;4214107;28;20098;-64
2022/07/25 04:49:57;;;;;;;5.72;4.78;;;30.20;80.80;;;;;;4208179;28;20113;-65
2022/07/25 04:51:58;;;;;;;5.28;4.55;;;30.50;79.60;;;;;;4208035;28;20101;-63
2022/07/25 04:54:00;;;;;;;4.32;3.92;;;30.30;78.70;;;;;;4211273;28;20047;-63
2022/07/25 04:56:01;;;;;;;11.15;5.45;;;30.30;78.50;;;;;;4211665;28;20062;-64
2022/07/25 04:58:02;;;;;;;5.05;4.30;;;30.70;78.10;;;;;;4213161;28;20086;-64
2022/07/25 05:00:05;;;;;;;6.18;4.70;;;31.00;77.00;;;;;;4211720;28;20097;-64
2022/07/25 05:02:06;;;;;;;6.38;4.57;;;31.30;76.10;;;;;;4213287;28;20093;-63
2022/07/25 05:04:07;;;;;;;5.88;5.00;;;31.50;75.30;;;;;;4211562;28;20051;-65
2022/07/25 05:06:08;;;;;;;5.97;4.32;;;31.50;74.70;;;;;;4220510;28;20080;-66
2022/07/25 05:08:09;;;;;;;5.20;4.03;;;31.70;74.00;;;;;;4228122;28;20032;-66
2022/07/25 05:10:12;;;;;;;6.18;4.25;;;31.90;73.30;;;;;;4211638;27;20085;-64
2022/07/25 05:12:13;;;;;;;8.00;4.95;;;31.80;73.00;;;;;;4210764;28;20093;-66
2022/07/25 05:14:14;;;;;;;4.72;4.32;;;32.10;72.70;;;;;;4211987;28;20442;-66
2022/07/25 05:16:15;;;;;;;6.45;5.30;;;32.20;71.90;;;;;;4210325;28;20135;-65
2022/07/25 05:18:16;;;;;;;11.70;4.68;;;32.10;71.40;;;;;;4212334;28;20040;-67
2022/07/25 05:20:18;;;;;;;5.88;4.47;;;32.10;71.10;;;;;;4211910;28;20349;-65
2022/07/25 05:22:19;;;;;;;7.47;5.05;;;32.30;70.70;;;;;;4211432;28;20085;-66
2022/07/25 05:24:21;;;;;;;9.02;4.80;;;32.20;70.40;;;;;;4212262;28;20097;-64
2022/07/25 05:26:22;;;;;;;5.93;4.47;;;32.10;70.40;;;;;;4211187;28;20086;-65
2022/07/25 05:28:24;;;;;;;7.47;4.72;;;31.90;70.30;;;;;;4212485;28;20092;-65
2022/07/25 05:30:25;;;;;;;8.45;5.35;;;31.80;70.20;;;;;;4210835;28;20454;-65
2022/07/25 05:32:26;;;;;;;7.45;4.18;;;32.10;70.00;;;;;;4212404;28;20472;-67
2022/07/25 05:34:27;;;;;;;5.38;4.07;;;32.20;69.50;;;;;;4210604;28;20086;-65
2022/07/25 05:36:28;;;;;;;7.28;4.38;;;32.30;69.10;;;;;;4212497;28;20460;-65
2022/07/25 05:38:30;;;;;;;8.20;4.47;;;32.10;68.90;;;;;;4210962;28;20028;-64
2022/07/25 05:40:31;;;;;;;5.75;4.25;;;32.00;68.90;;;;;;4212824;28;20085;-65
2022/07/25 05:42:32;;;;;;;9.93;4.88;;;32.40;68.50;;;;;;4210795;28;20426;-67
2022/07/25 05:44:34;;;;;;;8.23;4.60;;;32.70;67.90;;;;;;4212329;28;20112;-67
2022/07/25 05:46:35;;;;;;;6.40;4.38;;;32.60;67.50;;;;;;4210910;28;20032;-65
2022/07/25 05:48:36;;;;;;;5.82;4.10;;;32.60;67.50;;;;;;4211582;28;20036;-66
2022/07/25 05:50:37;;;;;;;13.95;9.23;;;32.70;67.30;;;;;;4211199;28;20378;-67
2022/07/25 05:52:38;;;;;;;8.38;5.20;;;33.00;67.10;;;;;;4211070;28;20020;-67
2022/07/25 05:54:40;;;;;;;5.82;4.30;;;32.90;66.70;;;;;;4211618;28;20032;-66
2022/07/25 05:56:41;;;;;;;5.53;4.38;;;32.90;66.60;;;;;;4210928;28;20837;-66
2022/07/25 05:58:42;;;;;;;4.15;3.75;;;32.90;66.50;;;;;;4212111;28;20023;-65
2022/07/25 06:00:43;;;;;;;6.13;4.55;;;32.80;66.40;;;;;;4210461;28;20517;-66
2022/07/25 06:02:44;;;;;;;7.93;4.30;;;32.60;66.50;;;;;;4212199;28;20097;-67
2022/07/25 06:04:45;;;;;;;15.32;4.95;;;32.80;66.60;;;;;;4210093;28;20891;-66
2022/07/25 06:06:50;;;;;;;11.43;4.97;;;32.90;67.10;;;;;;4211431;28;20028;-67
2022/07/25 06:08:51;;;;;;;16.08;6.90;;;33.20;66.50;;;;;;4210370;28;20052;-66
2022/07/25 06:10:52;;;;;;;9.43;4.43;;;33.70;66.10;;;;;;4212475;28;20423;-65
2022/07/25 06:12:53;;;;;;;13.57;4.85;;;33.30;65.70;;;;;;4210327;28;20040;-66
2022/07/25 06:14:54;;;;;;;9.75;5.20;;;32.80;66.50;;;;;;4211744;28;20054;-67
2022/07/25 06:16:56;;;;;;;11.63;5.07;;;32.50;67.00;;;;;;4210472;28;20024;-65
2022/07/25 06:18:57;;;;;;;19.27;5.15;;;32.90;66.90;;;;;;4211446;28;20089;-67
2022/07/25 06:20:58;;;;;;;8.65;4.65;;;33.10;66.60;;;;;;4210963;28;20424;-66
2022/07/25 06:22:59;;;;;;;12.30;4.63;;;33.60;66.20;;;;;;4210382;28;20485;-66
2022/07/25 06:25:01;;;;;;;12.68;5.03;;;33.50;65.80;;;;;;4211727;28;20036;-65
2022/07/25 06:27:03;;;;;;;11.02;4.85;;;32.70;66.20;;;;;;4210375;28;20032;-66
2022/07/25 06:29:04;;;;;;;9.98;4.45;;;31.60;67.70;;;;;;4211606;28;20546;-67
2022/07/25 06:31:05;;;;;;;14.10;4.80;;;31.60;68.20;;;;;;4210077;28;20016;-66
2022/07/25 06:33:06;;;;;;;13.63;4.80;;;32.20;68.00;;;;;;4211634;28;20081;-66
2022/07/25 06:35:08;;;;;;;9.52;3.88;;;32.30;67.60;;;;;;4209803;28;20024;-66
2022/07/25 06:37:09;;;;;;;13.38;4.68;;;32.50;67.50;;;;;;4211254;28;20081;-64
2022/07/25 06:39:10;;;;;;;7.63;4.13;;;32.50;67.30;;;;;;4209797;28;20125;-66
2022/07/25 06:41:14;;;;;;;6.80;4.05;;;32.00;68.00;;;;;;4211810;28;20036;-65
2022/07/25 06:43:16;;;;;;;4.65;3.78;;;31.60;68.60;;;;;;4210139;28;20040;-66
2022/07/25 06:45:17;;;;;;;10.57;4.22;;;31.00;69.60;;;;;;4211494;28;20441;-66
2022/07/25 06:47:18;;;;;;;10.77;4.35;;;31.40;69.80;;;;;;4209970;28;20538;-67
2022/07/25 06:49:19;;;;;;;9.85;4.28;;;31.50;69.60;;;;;;4210645;28;20036;-66
2022/07/25 06:51:22;;;;;;;8.27;4.60;;;31.30;69.20;;;;;;4210213;28;20057;-67
2022/07/25 06:53:23;;;;;;;9.85;4.38;;;30.20;70.40;;;;;;4210287;28;20085;-67
2022/07/25 06:55:24;;;;;;;7.53;4.60;;;30.00;71.30;;;;;;4210654;28;20028;-65
2022/07/25 06:57:26;;;;;;;6.18;4.60;;;29.20;72.40;;;;;;4210015;28;20554;-65
2022/07/25 06:59:27;;;;;;;7.78;4.68;;;28.60;73.20;;;;;;4210899;28;20103;-66
2022/07/25 07:01:29;;;;;;;8.48;4.20;;;29.20;73.20;;;;;;4209144;28;20028;-64
2022/07/25 07:03:30;;;;;;;7.57;4.28;;;29.20;73.00;;;;;;4210656;28;20446;-65
2022/07/25 07:05:35;;;;;;;8.00;4.25;;;28.90;73.60;;;;;;4209233;28;20020;-65
2022/07/25 07:07:36;;;;;;;8.43;4.97;;;29.30;73.30;;;;;;4211130;28;20044;-65
2022/07/25 07:09:37;;;;;;;7.30;4.13;;;29.10;73.20;;;;;;4209531;28;20081;-66
2022/07/25 07:11:38;;;;;;;14.48;5.50;;;28.90;73.90;;;;;;4211473;28;20040;-65
2022/07/25 07:13:40;;;;;;;6.07;4.35;;;28.80;74.00;;;;;;4209366;28;20105;-66
2022/07/25 07:15:48;;;;;;;7.18;4.38;;;28.50;74.50;;;;;;4211370;28;20028;-67
2022/07/25 07:17:50;;;;;;;11.40;4.68;;;28.20;75.50;;;;;;4209410;28;20426;-66
2022/07/25 07:19:52;;;;;;;9.70;4.90;;;27.80;76.20;;;;;;4210741;28;20036;-66
2022/07/25 07:21:54;;;;;;;12.48;7.75;;;27.70;76.90;;;;;;4209619;28;20450;-67
2022/07/25 07:23:55;;;;;;;13.13;8.50;;;27.70;76.80;;;;;;4210253;28;20101;-66
2022/07/25 07:25:56;;;;;;;6.22;4.95;;;27.60;77.40;;;;;;4209704;28;20036;-65
2022/07/25 07:27:57;;;;;;;9.32;5.43;;;27.70;77.40;;;;;;4209880;28;20032;-66
2022/07/25 07:29:59;;;;;;;11.50;4.80;;;27.70;77.30;;;;;;4210023;28;20131;-65
2022/07/25 07:32:00;;;;;;;8.27;4.22;;;28.50;76.40;;;;;;4209678;28;20069;-66
2022/07/25 07:34:01;;;;;;;15.43;5.10;;;28.90;75.80;;;;;;4210455;28;20092;-65
2022/07/25 07:36:03;;;;;;;6.70;4.00;;;29.40;74.90;;;;;;4208740;28;20036;-66
2022/07/25 07:38:04;;;;;;;10.32;4.68;;;30.10;74.20;;;;;;4210653;28;20032;-66
2022/07/25 07:40:06;;;;;;;10.80;4.15;;;30.20;73.50;;;;;;4208939;28;20028;-66
2022/07/25 07:42:07;;;;;;;6.53;4.60;;;29.80;74.10;;;;;;4210902;28;20070;-65
2022/07/25 07:44:08;;;;;;;8.52;5.00;;;29.60;74.40;;;;;;4208847;28;20110;-65
2022/07/25 07:46:09;;;;;;;10.80;4.47;;;29.20;74.60;;;;;;4210583;28;20040;-65
2022/07/25 07:48:10;;;;;;;8.50;4.53;;;28.90;75.30;;;;;;4208610;28;20032;-65
2022/07/25 07:50:12;;;;;;;11.52;4.40;;;28.80;76.10;;;;;;4210404;28;20028;-66
2022/07/25 07:52:13;;;;;;;5.03;4.50;;;29.20;75.20;;;;;;4208847;28;20047;-66
2022/07/25 07:56:34;;;;;;;13.30;4.82;;;29.40;74.10;;;;;;4209079;28;20024;-64
2022/07/25 07:58:36;;;;;;;8.82;4.68;;;29.20;74.60;;;;;;4210157;28;20128;-66
2022/07/25 08:00:40;;;;;;;9.15;4.82;;;28.70;75.40;;;;;;4209227;28;20028;-67
2022/07/25 08:02:43;;;;;;;6.88;4.60;;;28.30;75.90;;;;;;4209916;28;20098;-66
2022/07/25 08:04:44;;;;;;;4.88;3.95;;;28.30;75.60;;;;;;4209026;28;20036;-66
2022/07/25 08:06:45;;;;;;;9.25;4.63;;;28.30;75.30;;;;;;4209096;28;20051;-66
2022/07/25 08:08:47;;;;;;;6.85;4.20;;;28.70;74.50;;;;;;4208425;28;20032;-66
2022/07/25 08:10:48;;;;;;;7.32;4.55;;;28.60;73.80;;;;;;4208698;28;20128;-66
2022/07/25 08:12:50;;;;;;;9.82;4.45;;;28.70;73.50;;;;;;4210454;28;20472;-66
2022/07/25 08:14:51;;;;;;;10.73;4.13;;;28.60;73.40;;;;;;4208660;28;20028;-65
2022/07/25 08:16:55;;;;;;;5.13;4.15;;;28.70;74.10;;;;;;4210262;28;20065;-64
2022/07/25 08:18:56;;;;;;;7.57;4.80;;;29.00;73.50;;;;;;4208903;28;20109;-65
2022/07/25 08:20:59;;;;;;;6.60;4.47;;;29.30;73.10;;;;;;4210109;28;20105;-67
2022/07/25 08:23:00;;;;;;;8.15;4.97;;;29.60;72.60;;;;;;4208707;28;20492;-66
2022/07/25 08:25:01;;;;;;;4.57;4.18;;;29.90;72.10;;;;;;4210294;28;20060;-66
2022/07/25 08:27:02;;;;;;;4.57;4.18;;;30.10;71.40;;;;;;4208707;28;20089;-66
2022/07/25 08:29:03;;;;;;;9.90;4.90;;;30.40;71.30;;;;;;4211315;28;20377;-67
2022/07/25 08:31:05;;;;;;;7.00;4.47;;;30.70;71.10;;;;;;4211849;28;20073;-66
2022/07/25 08:33:12;;;;;;;10.60;4.22;;;30.70;70.90;;;;;;4212637;28;20468;-68
2022/07/25 08:35:14;;;;;;;6.35;3.83;;;30.70;70.20;;;;;;4211427;28;20036;-65
2022/07/25 08:37:15;;;;;;;6.63;4.05;;;30.80;70.20;;;;;;4212145;28;20051;-66
2022/07/25 08:39:16;;;;;;;6.10;3.78;;;31.20;69.80;;;;;;4212218;28;20028;-68
2022/07/25 08:41:17;;;;;;;10.48;3.65;;;31.40;68.70;;;;;;4212116;28;20085;-65
2022/07/25 08:43:18;;;;;;;6.00;3.88;;;31.40;69.00;;;;;;4213047;28;20025;-65
2022/07/25 08:45:20;;;;;;;6.28;3.70;;;31.30;68.40;;;;;;4211172;28;20089;-66
2022/07/25 08:47:21;;;;;;;6.90;4.20;;;31.40;68.30;;;;;;4213152;28;20016;-66
2022/07/25 08:49:23;;;;;;;7.15;4.25;;;31.60;68.00;;;;;;4211126;28;20070;-65
2022/07/25 08:51:25;;;;;;;5.78;3.85;;;31.80;67.80;;;;;;4213114;28;20027;-65
2022/07/25 08:53:28;;;;;;;7.35;4.22;;;31.90;67.60;;;;;;4211644;28;20029;-64
2022/07/25 08:55:29;;;;;;;8.45;3.72;;;32.00;67.00;;;;;;4212731;28;20048;-66
2022/07/25 08:57:30;;;;;;;6.68;3.95;;;31.70;66.70;;;;;;4211382;28;20165;-64
2022/07/25 08:59:32;;;;;;;6.93;3.92;;;31.60;66.80;;;;;;4213045;28;20488;-65
2022/07/25 09:01:33;;;;;;;6.78;4.00;;;31.60;66.80;;;;;;4211326;28;20093;-65
2022/07/25 09:03:35;;;;;;;5.72;4.55;;;31.00;67.10;;;;;;4212899;28;20032;-66
2022/07/25 09:05:37;;;;;;;8.55;4.20;;;30.40;67.90;;;;;;4211096;28;20036;-66
2022/07/25 09:07:40;;;;;;;7.43;4.75;;;30.00;68.50;;;;;;4211844;28;20028;-65
2022/07/25 09:09:43;;;;;;;6.80;4.20;;;29.90;69.10;;;;;;4211583;28;20155;-65
2022/07/25 09:11:44;;;;;;;7.07;4.85;;;29.80;69.00;;;;;;4211670;28;20124;-66
2022/07/25 09:13:57;;;;;;;7.18;4.10;;;29.70;68.70;;;;;;4212608;28;20389;-66
2022/07/25 09:15:59;;;;;;;10.85;4.70;;;29.60;69.10;;;;;;4211381;28;20036;-66
2022/07/25 09:18:14;;;;;;;8.77;4.57;;;29.50;69.40;;;;;;4212172;28;20089;-66
2022/07/25 09:20:15;;;;;;;6.88;4.28;;;29.40;69.10;;;;;;4211327;28;20028;-65
2022/07/25 09:22:16;;;;;;;5.50;4.38;;;29.30;69.20;;;;;;4212235;28;20036;-66
2022/07/25 09:24:21;;;;;;;8.75;4.15;;;29.30;69.40;;;;;;4210831;28;20056;-66
2022/07/25 09:26:22;;;;;;;6.78;4.82;;;29.30;69.30;;;;;;4211157;28;20785;-66
2022/07/25 09:28:23;;;;;;;9.52;4.95;;;29.20;69.40;;;;;;4210740;28;20089;-65
2022/07/25 09:30:24;;;;;;;5.38;4.68;;;29.40;69.20;;;;;;4212894;28;20065;-65
2022/07/25 09:32:25;;;;;;;6.75;4.22;;;29.50;68.80;;;;;;4211165;28;20479;-65
2022/07/25 09:34:39;;;;;;;7.60;4.32;;;29.50;68.40;;;;;;4212308;28;20044;-67
2022/07/25 09:36:53;;;;;;;6.90;4.95;;;29.30;67.00;;;;;;4210582;28;20089;-65
2022/07/25 09:39:00;;;;;;;5.18;4.00;;;28.90;67.50;;;;;;4212541;28;20032;-65
2022/07/25 09:41:01;;;;;;;12.93;4.97;;;28.60;67.60;;;;;;4209305;28;20065;-66
2022/07/25 09:43:03;;;;;;;8.90;4.57;;;28.60;68.20;;;;;;4212718;28;20089;-66
2022/07/25 09:45:14;;;;;;;5.88;4.18;;;28.60;68.10;;;;;;4210864;28;20097;-65
2022/07/25 09:47:15;;;;;;;4.65;4.07;;;28.90;67.80;;;;;;4212419;28;20040;-64
2022/07/25 09:49:18;;;;;;;5.25;4.20;;;29.20;67.60;;;;;;4210603;28;20101;-65
2022/07/25 09:51:19;;;;;;;4.40;3.78;;;29.40;66.90;;;;;;4212222;28;20058;-65
2022/07/25 09:53:20;;;;;;;5.18;4.15;;;29.60;66.10;;;;;;4210518;28;20036;-66
2022/07/25 09:55:22;;;;;;;8.65;4.75;;;29.70;66.00;;;;;;4212109;28;20093;-68
2022/07/25 09:57:24;;;;;;;4.43;4.03;;;29.90;66.50;;;;;;4210490;28;20028;-66
2022/07/25 09:59:26;;;;;;;4.28;3.88;;;29.90;66.70;;;;;;4211271;28;20028;-64
2022/07/25 10:01:34;;;;;;;6.60;4.28;;;29.70;66.70;;;;;;4211112;28;20057;-67
2022/07/25 10:03:50;;;;;;;4.43;3.72;;;29.40;67.30;;;;;;4211221;28;20439;-64
2022/07/25 10:06:04;;;;;;;6.60;4.53;;;29.20;67.40;;;;;;4210434;28;20484;-67
2022/07/25 10:08:07;;;;;;;5.68;3.72;;;29.20;67.80;;;;;;4210938;28;20101;-65
2022/07/25 10:10:39;;;;;;;7.95;3.72;;;29.20;67.60;;;;;;4211175;28;20477;-66
2022/07/25 10:12:41;;;;;;;6.60;4.10;;;29.30;65.90;;;;;;4211506;28;20446;-65
2022/07/25 10:14:42;;;;;;;6.43;4.32;;;29.30;66.30;;;;;;4210274;28;20040;-65
2022/07/25 10:16:45;;;;;;;7.40;4.78;;;29.40;66.50;;;;;;4210972;28;20040;-66
2022/07/25 10:18:49;;;;;;;5.10;3.97;;;29.70;66.60;;;;;;4210905;28;20048;-67
2022/07/25 10:20:53;;;;;;;4.28;3.88;;;29.90;66.70;;;;;;4210171;28;20469;-67
2022/07/25 10:22:55;;;;;;;3.75;3.10;;;30.10;65.70;;;;;;4211108;28;20039;-66
2022/07/25 10:25:17;;;;;;;6.15;3.22;;;30.10;65.20;;;;;;4209431;28;20040;-65
2022/07/25 10:27:23;;;;;;;3.40;3.10;;;30.30;63.20;;;;;;4210785;28;20040;-65
2022/07/25 10:29:33;;;;;;;4.45;3.10;;;30.20;64.00;;;;;;4210154;28;20551;-67
2022/07/25 10:31:41;;;;;;;3.22;2.92;;;30.40;63.20;;;;;;4210989;28;20097;-66
2022/07/25 10:33:46;;;;;;;5.13;3.10;;;30.50;62.70;;;;;;4209992;28;20043;-67
2022/07/25 10:35:47;;;;;;;3.60;3.30;;;30.60;62.40;;;;;;4210773;28;20020;-65